Terminal Aerodrome Forecast
Issued by NWS

Current Version | Previous Version | Graphics & Text | Print | Product List | Glossary On
Versions: 1 2 3 4 5 6 7 8 9 10 11 12 13 14 15 16 17 18 19
000
FTUS41 KPBZ 281557 AAA
TAFHLG
TAF AMD
KHLG 281557Z 2816/2912 29003KT 6SM -SHRA BR OVC015
      TEMPO 2816/2818 1SM -SHRA BR OVC006
     FM282000 33008KT P6SM OVC015
     FM290300 33005KT P6SM OVC008=

USA.gov is the U.S. government's official web portal to all federal, state and local government web resources and services.